San Fermin Berria — EBVW — position and weather

sailwx.info

Track history (hours):
 
Tides and Currents Weather Stations Pressure Air Temp Water Temp Dewpoint Dewpoint Depression Visibility Wind Speed Wind Dir Waves Ship Positions

San Fermin Berria

Last reported at 2017-Jun-22 11:16 UTC. Time now 2017-Jun-26 19:09 UTC.
Position N 43°23' W 001°47'.

Length 30 m.

Type: Fishing. MMSI: 224114650.

Date/timePositionNaut miles runAvg speedWind from/ knotsBaromVisibWave heightAir tempDewpointWater temp
2017-Jun-22 11:16N 43°23' W 001°47'0 0.0
2017-Jun-22 11:00N 43°23' W 001°47'0 0.0
2017-Jun-22 10:30N 43°23' W 001°47'0 0.0
2017-Jun-22 10:00N 43°23' W 001°47'0 0.0
2017-Jun-22 09:30N 43°23' W 001°47'0 0.0
2017-Jun-22 09:00N 43°23' W 001°47'0 0.0
2017-Jun-22 08:30N 43°23' W 001°47'0 0.0
2017-Jun-22 08:00N 43°23' W 001°47'0 0.0
2017-Jun-22 07:30N 43°23' W 001°47'0 0.0
2017-Jun-22 07:00N 43°23' W 001°47'0 0.0
2017-Jun-22 06:30N 43°23' W 001°47'0 0.0
2017-Jun-22 05:56N 43°23' W 001°47'0 0.0
2017-Jun-22 05:29N 43°23' W 001°47'0 0.0
2017-Jun-22 04:58N 43°23' W 001°47'0 0.0
2017-Jun-22 04:30N 43°23' W 001°47'4 5.6
2017-Jun-22 03:45N 43°24' W 001°53'310.0
2017-Jun-22 03:28N 43°23' W 001°57'4 9.6
2017-Jun-22 03:00N 43°21' W 002°03'3 5.8
2017-Jun-22 02:30N 43°21' W 002°07'0 0.7
2017-Jun-22 02:00N 43°21' W 002°07'0 0.7
2017-Jun-22 01:28N 43°22' W 002°08'0 0.6
2017-Jun-22 00:57N 43°22' W 002°08'0 0.6
2017-Jun-22 00:30N 43°22' W 002°08'0 0.7
2017-Jun-22 00:00N 43°22' W 002°08'0 0.8
2017-Jun-21 23:30N 43°23' W 002°09'0 0.7
2017-Jun-21 23:00N 43°23' W 002°09'3 4.6
2017-Jun-21 22:17N 43°26' W 002°09'3 9.1
2017-Jun-21 22:00N 43°29' W 002°10'2 4.2
2017-Jun-21 21:26N 43°31' W 002°09'4 7.3
2017-Jun-21 20:55N 43°35' W 002°07'3 8.4
2017-Jun-21 20:30N 43°38' W 002°06'5 9.2
2017-Jun-21 20:00N 43°37' W 001°59'5 9.6
2017-Jun-21 19:30N 43°33' W 001°56'4 9.0
2017-Jun-21 19:00N 43°29' W 001°53'4 7.9
2017-Jun-21 18:27N 43°26' W 001°49'3 6.4
2017-Jun-21 18:00N 43°23' W 001°47'0 0.9
2017-Jun-21 17:30N 43°23' W 001°48'0 0.0
2017-Jun-21 17:00N 43°23' W 001°48'0 0.0
2017-Jun-21 16:30N 43°23' W 001°48'0 0.0
2017-Jun-21 16:00N 43°23' W 001°48'0 0.0
2017-Jun-21 15:30N 43°23' W 001°48'0 0.0
2017-Jun-21 15:00N 43°23' W 001°48'1 1.3
2017-Jun-21 14:27N 43°24' W 001°47'0 0.0
2017-Jun-20 09:43N 43°24' W 001°48'1 0.0
2017-Jun-19 13:30N 43°23' W 001°48'0 0.1
2017-Jun-19 13:00N 43°23' W 001°48'0 0.0
2017-Jun-19 12:25N 43°23' W 001°48'0 0.2
2017-Jun-19 12:00N 43°23' W 001°47'0 0.0
2017-Jun-19 11:30N 43°23' W 001°47'0 0.0
2017-Jun-19 10:59N 43°23' W 001°47'0 0.0
2017-Jun-19 10:17N 43°23' W 001°47'0 0.0
2017-Jun-19 09:43N 43°23' W 001°47'0 0.0
2017-Jun-19 09:26N 43°23' W 001°47'1 1.2
2017-Jun-19 08:35N 43°24' W 001°46'1 6.3
2017-Jun-19 08:30N 43°23' W 001°47'0 1.0
2017-Jun-19 08:00N 43°23' W 001°47'0 0.0
2017-Jun-19 07:30N 43°23' W 001°47'  
2017-Jun-15 13:42N 43°23' W 001°47'0 0.0
2017-Jun-15 13:27N 43°23' W 001°47'0 0.0
2017-Jun-15 12:57N 43°23' W 001°47'0 0.0
2017-Jun-15 12:30N 43°23' W 001°47'0 0.0
2017-Jun-15 12:00N 43°23' W 001°47'0 0.0
2017-Jun-15 11:30N 43°23' W 001°47'0 0.0
2017-Jun-15 10:57N 43°23' W 001°47'0 0.0
2017-Jun-15 10:30N 43°23' W 001°47'0 0.0
2017-Jun-15 10:00N 43°23' W 001°47'0 0.0
2017-Jun-15 09:26N 43°23' W 001°47'0 0.0
2017-Jun-15 08:56N 43°23' W 001°47'0 0.0
2017-Jun-15 08:28N 43°23' W 001°47'0 0.0
2017-Jun-15 07:57N 43°23' W 001°47'0 0.0
2017-Jun-15 07:30N 43°23' W 001°47'0 0.0
2017-Jun-15 06:57N 43°23' W 001°47'0 0.0
2017-Jun-15 06:30N 43°23' W 001°47'1 1.9
2017-Jun-15 06:00N 43°24' W 001°48'16 1.7
2017-Jun-14 20:18N 43°24' W 002°10'0 1.1
2017-Jun-14 19:52N 43°23' W 002°10'2 3.8
2017-Jun-14 19:12N 43°22' W 002°07'3 9.3
2017-Jun-14 18:54N 43°21' W 002°04'4 9.2
2017-Jun-14 18:30N 43°22' W 001°59'5 9.3
2017-Jun-14 18:00N 43°23' W 001°53'4 8.2
2017-Jun-14 17:30N 43°24' W 001°47'1 0.1
2017-Jun-14 08:32N 43°23' W 001°48'0 0.0
2017-Jun-14 08:30N 43°23' W 001°48'0 0.0
2017-Jun-14 08:00N 43°23' W 001°48'0 0.2
2017-Jun-14 07:30N 43°23' W 001°47'0 0.0
2017-Jun-14 07:00N 43°23' W 001°47'1 1.4
2017-Jun-14 06:29N 43°24' W 001°47'48 1.3
2017-Jun-12 16:33N 43°36' W 002°51'1 9.0
2017-Jun-12 16:27N 43°37' W 002°50'4 8.8
2017-Jun-12 16:00N 43°37' W 002°45'4 8.9
2017-Jun-12 15:30N 43°37' W 002°39'5 9.0
2017-Jun-12 15:00N 43°38' W 002°33'5 9.5
2017-Jun-12 14:29N 43°39' W 002°26'12 9.6
2017-Jun-12 13:14N 43°42' W 002°10'  
Track history (hours):
 
Tides and Currents Weather Stations Pressure Air Temp Water Temp Dewpoint Dewpoint Depression Visibility Wind Speed Wind Dir Waves Ship Positions

San Fermin Berria

Last reported at 2017-Jun-22 11:16 UTC. Time now 2017-Jun-26 19:09 UTC.
Position N 43°23' W 001°47'.

Length 30 m.

Type: Fishing. MMSI: 224114650.

Date/timePositionNaut miles runAvg speedWind from/ knotsBaromVisibWave heightAir tempDewpointWater temp
2017-Jun-22 11:16N 43°23' W 001°47'0 0.0
2017-Jun-22 11:00N 43°23' W 001°47'0 0.0
2017-Jun-22 10:30N 43°23' W 001°47'0 0.0
2017-Jun-22 10:00N 43°23' W 001°47'0 0.0
2017-Jun-22 09:30N 43°23' W 001°47'0 0.0
2017-Jun-22 09:00N 43°23' W 001°47'0 0.0
2017-Jun-22 08:30N 43°23' W 001°47'0 0.0
2017-Jun-22 08:00N 43°23' W 001°47'0 0.0
2017-Jun-22 07:30N 43°23' W 001°47'0 0.0
2017-Jun-22 07:00N 43°23' W 001°47'0 0.0
2017-Jun-22 06:30N 43°23' W 001°47'0 0.0
2017-Jun-22 05:56N 43°23' W 001°47'0 0.0
2017-Jun-22 05:29N 43°23' W 001°47'0 0.0
2017-Jun-22 04:58N 43°23' W 001°47'0 0.0
2017-Jun-22 04:30N 43°23' W 001°47'4 5.6
2017-Jun-22 03:45N 43°24' W 001°53'310.0
2017-Jun-22 03:28N 43°23' W 001°57'4 9.6
2017-Jun-22 03:00N 43°21' W 002°03'3 5.8
2017-Jun-22 02:30N 43°21' W 002°07'0 0.7
2017-Jun-22 02:00N 43°21' W 002°07'0 0.7
2017-Jun-22 01:28N 43°22' W 002°08'0 0.6
2017-Jun-22 00:57N 43°22' W 002°08'0 0.6
2017-Jun-22 00:30N 43°22' W 002°08'0 0.7
2017-Jun-22 00:00N 43°22' W 002°08'0 0.8
2017-Jun-21 23:30N 43°23' W 002°09'0 0.7
2017-Jun-21 23:00N 43°23' W 002°09'3 4.6
2017-Jun-21 22:17N 43°26' W 002°09'3 9.1
2017-Jun-21 22:00N 43°29' W 002°10'2 4.2
2017-Jun-21 21:26N 43°31' W 002°09'4 7.3
2017-Jun-21 20:55N 43°35' W 002°07'3 8.4
2017-Jun-21 20:30N 43°38' W 002°06'5 9.2
2017-Jun-21 20:00N 43°37' W 001°59'5 9.6
2017-Jun-21 19:30N 43°33' W 001°56'4 9.0
2017-Jun-21 19:00N 43°29' W 001°53'4 7.9
2017-Jun-21 18:27N 43°26' W 001°49'3 6.4
2017-Jun-21 18:00N 43°23' W 001°47'0 0.9
2017-Jun-21 17:30N 43°23' W 001°48'0 0.0
2017-Jun-21 17:00N 43°23' W 001°48'0 0.0
2017-Jun-21 16:30N 43°23' W 001°48'0 0.0
2017-Jun-21 16:00N 43°23' W 001°48'0 0.0
2017-Jun-21 15:30N 43°23' W 001°48'0 0.0
2017-Jun-21 15:00N 43°23' W 001°48'1 1.3
2017-Jun-21 14:27N 43°24' W 001°47'0 0.0
2017-Jun-20 09:43N 43°24' W 001°48'1 0.0
2017-Jun-19 13:30N 43°23' W 001°48'0 0.1
2017-Jun-19 13:00N 43°23' W 001°48'0 0.0
2017-Jun-19 12:25N 43°23' W 001°48'0 0.2
2017-Jun-19 12:00N 43°23' W 001°47'0 0.0
2017-Jun-19 11:30N 43°23' W 001°47'0 0.0
2017-Jun-19 10:59N 43°23' W 001°47'0 0.0
2017-Jun-19 10:17N 43°23' W 001°47'0 0.0
2017-Jun-19 09:43N 43°23' W 001°47'0 0.0
2017-Jun-19 09:26N 43°23' W 001°47'1 1.2
2017-Jun-19 08:35N 43°24' W 001°46'1 6.3
2017-Jun-19 08:30N 43°23' W 001°47'0 1.0
2017-Jun-19 08:00N 43°23' W 001°47'0 0.0
2017-Jun-19 07:30N 43°23' W 001°47'  
2017-Jun-15 13:42N 43°23' W 001°47'0 0.0
2017-Jun-15 13:27N 43°23' W 001°47'0 0.0
2017-Jun-15 12:57N 43°23' W 001°47'0 0.0
2017-Jun-15 12:30N 43°23' W 001°47'0 0.0
2017-Jun-15 12:00N 43°23' W 001°47'0 0.0
2017-Jun-15 11:30N 43°23' W 001°47'0 0.0
2017-Jun-15 10:57N 43°23' W 001°47'0 0.0
2017-Jun-15 10:30N 43°23' W 001°47'0 0.0
2017-Jun-15 10:00N 43°23' W 001°47'0 0.0
2017-Jun-15 09:26N 43°23' W 001°47'0 0.0
2017-Jun-15 08:56N 43°23' W 001°47'0 0.0
2017-Jun-15 08:28N 43°23' W 001°47'0 0.0
2017-Jun-15 07:57N 43°23' W 001°47'0 0.0
2017-Jun-15 07:30N 43°23' W 001°47'0 0.0
2017-Jun-15 06:57N 43°23' W 001°47'0 0.0
2017-Jun-15 06:30N 43°23' W 001°47'1 1.9
2017-Jun-15 06:00N 43°24' W 001°48'16 1.7
2017-Jun-14 20:18N 43°24' W 002°10'0 1.1
2017-Jun-14 19:52N 43°23' W 002°10'2 3.8
2017-Jun-14 19:12N 43°22' W 002°07'3 9.3
2017-Jun-14 18:54N 43°21' W 002°04'4 9.2
2017-Jun-14 18:30N 43°22' W 001°59'5 9.3
2017-Jun-14 18:00N 43°23' W 001°53'4 8.2
2017-Jun-14 17:30N 43°24' W 001°47'1 0.1
2017-Jun-14 08:32N 43°23' W 001°48'0 0.0
2017-Jun-14 08:30N 43°23' W 001°48'0 0.0
2017-Jun-14 08:00N 43°23' W 001°48'0 0.2
2017-Jun-14 07:30N 43°23' W 001°47'0 0.0
2017-Jun-14 07:00N 43°23' W 001°47'1 1.4
2017-Jun-14 06:29N 43°24' W 001°47'48 1.3
2017-Jun-12 16:33N 43°36' W 002°51'1 9.0
2017-Jun-12 16:27N 43°37' W 002°50'4 8.8
2017-Jun-12 16:00N 43°37' W 002°45'4 8.9
2017-Jun-12 15:30N 43°37' W 002°39'5 9.0
2017-Jun-12 15:00N 43°38' W 002°33'5 9.5
2017-Jun-12 14:29N 43°39' W 002°26'12 9.6
2017-Jun-12 13:14N 43°42' W 002°10'  

Dump ship's entire track history